Terminal Aerodrome Forecast
Issued by NWS Sioux Falls, SD

Home | Current Version | Previous Version | Text Only | Print | Product List | Glossary On
Versions: 1 2 3 4 5 6 7 8 9 10 11 12
000
FTUS43 KFSD 291733
TAFFSD
TAF
KFSD 291733Z 2918/3018 17010KT P6SM SCT060 BKN200
     FM300000 17007KT P6SM SCT045 BKN200
      TEMPO 3000/3003 BKN045
     FM301100 VRB03KT 4SM BR BKN050
     FM301400 08005KT P6SM BKN060=

USA.gov is the U.S. government's official web portal to all federal, state and local government web resources and services.